Current Weather

Capital Region Intl

Lansing, Michigan (KLAN)

Report from: Wednesday, April 24, 2024 11:53 PM EDT
Current time: Thursday, April 25, 2024 1:00 AM EDT

Nearby weather – Weather history – Daily summaries
Weather forecast

Temperature1.7°C (35.1°F)
Wind chill0.1°C (32.2°F)
Dew point-3.9°C (25.0°F)
Winds 3 kts (1.5 m/s, 3.5 mph) North-Northeast (30°)
Visibility10 mi. (16.1 km)
Clouds Sky clear
Altimeter30.32 in.Hg (1027 mB)
Relative humidity66 %
Density altitude-2,027 ft. (-618 m)
Sea-level pressure102.7 kPa (1027 mB, 30.34 in.Hg)
Remarks System requires maintenance
Automated weather observing station with precipitation discriminator
Flight conditions Visual Meteorological Conditions
Raw dataKLAN 250353Z 03003KT 10SM CLR 02/M04 A3032 RMK AO2 SLP274 T00171039 $
An error has occurred. This application may no longer respond until reloaded. Reload 🗙